sensor_id;sensor_type;location;lat;lon;timestamp;pressure;altitude;pressure_sealevel;temperature;humidity
59650;BME280;46162;57.568;25.814;2023-03-21T00:00:53;99992.25;;;4.01;100.00
59650;BME280;46162;57.568;25.814;2023-03-21T00:03:22;99989.84;;;3.98;100.00
59650;BME280;46162;57.568;25.814;2023-03-21T00:05:51;99984.88;;;3.94;100.00
59650;BME280;46162;57.568;25.814;2023-03-21T00:08:23;99984.88;;;3.94;100.00
59650;BME280;46162;57.568;25.814;2023-03-21T00:10:56;99982.22;;;3.94;100.00
59650;BME280;46162;57.568;25.814;2023-03-21T00:13:26;99983.53;;;3.88;100.00
59650;BME280;46162;57.568;25.814;2023-03-21T00:16:03;99989.41;;;3.82;100.00
59650;BME280;46162;57.568;25.814;2023-03-21T00:18:42;99994.00;;;3.80;100.00
59650;BME280;46162;57.568;25.814;2023-03-21T00:21:13;99986.38;;;3.75;100.00
59650;BME280;46162;57.568;25.814;2023-03-21T00:24:05;99989.03;;;3.75;100.00
59650;BME280;46162;57.568;25.814;2023-03-21T00:26:34;99987.00;;;3.67;100.00
59650;BME280;46162;57.568;25.814;2023-03-21T00:29:04;99986.75;;;3.71;100.00
59650;BME280;46162;57.568;25.814;2023-03-21T00:31:33;99986.75;;;3.71;100.00
59650;BME280;46162;57.568;25.814;2023-03-21T00:34:03;99990.66;;;3.66;100.00
59650;BME280;46162;57.568;25.814;2023-03-21T00:36:31;99978.88;;;3.69;100.00
59650;BME280;46162;57.568;25.814;2023-03-21T00:39:00;99981.06;;;3.64;100.00
59650;BME280;46162;57.568;25.814;2023-03-21T00:41:31;99988.34;;;3.62;100.00
59650;BME280;46162;57.568;25.814;2023-03-21T00:44:16;99995.63;;;3.60;100.00
59650;BME280;46162;57.568;25.814;2023-03-21T00:46:44;99984.97;;;3.60;100.00
59650;BME280;46162;57.568;25.814;2023-03-21T00:49:33;99984.97;;;3.60;100.00
59650;BME280;46162;57.568;25.814;2023-03-21T00:52:03;99980.72;;;3.57;100.00
59650;BME280;46162;57.568;25.814;2023-03-21T00:54:52;99978.31;;;3.54;100.00
59650;BME280;46162;57.568;25.814;2023-03-21T00:57:23;99974.78;;;3.54;100.00
59650;BME280;46162;57.568;25.814;2023-03-21T01:00:07;99983.16;;;3.49;100.00
59650;BME280;46162;57.568;25.814;2023-03-21T01:02:37;99980.50;;;3.49;100.00
59650;BME280;46162;57.568;25.814;2023-03-21T01:05:10;99978.94;;;3.47;100.00
59650;BME280;46162;57.568;25.814;2023-03-21T01:07:39;99982.44;;;3.47;100.00
59650;BME280;46162;57.568;25.814;2023-03-21T01:10:09;99977.34;;;3.44;100.00
59650;BME280;46162;57.568;25.814;2023-03-21T01:12:39;99984.38;;;3.45;100.00
59650;BME280;46162;57.568;25.814;2023-03-21T01:15:08;99988.72;;;3.46;100.00
59650;BME280;46162;57.568;25.814;2023-03-21T01:17:37;99978.19;;;3.44;100.00
59650;BME280;46162;57.568;25.814;2023-03-21T01:20:07;99987.31;;;3.42;100.00
59650;BME280;46162;57.568;25.814;2023-03-21T01:22:37;99988.03;;;3.44;100.00
59650;BME280;46162;57.568;25.814;2023-03-21T01:25:06;99984.63;;;3.42;100.00
59650;BME280;46162;57.568;25.814;2023-03-21T01:27:50;99984.88;;;3.39;100.00
59650;BME280;46162;57.568;25.814;2023-03-21T01:30:21;99987.31;;;3.42;100.00
59650;BME280;46162;57.568;25.814;2023-03-21T01:32:52;99983.91;;;3.40;100.00
59650;BME280;46162;57.568;25.814;2023-03-21T01:35:20;99989.13;;;3.41;100.00
59650;BME280;46162;57.568;25.814;2023-03-21T01:37:49;99991.19;;;3.38;100.00
59650;BME280;46162;57.568;25.814;2023-03-21T01:40:21;99981.34;;;3.38;100.00
59650;BME280;46162;57.568;25.814;2023-03-21T01:42:56;99985.84;;;3.38;100.00
59650;BME280;46162;57.568;25.814;2023-03-21T01:49:01;99985.97;;;3.36;100.00
59650;BME280;46162;57.568;25.814;2023-03-21T01:51:31;99973.47;;;3.37;100.00
59650;BME280;46162;57.568;25.814;2023-03-21T01:54:03;99976.38;;;3.34;100.00
59650;BME280;46162;57.568;25.814;2023-03-21T01:56:36;99980.75;;;3.35;100.00
59650;BME280;46162;57.568;25.814;2023-03-21T01:59:18;99982.44;;;3.36;100.00
59650;BME280;46162;57.568;25.814;2023-03-21T02:02:11;99981.72;;;3.34;100.00
59650;BME280;46162;57.568;25.814;2023-03-21T02:04:54;99980.88;;;3.33;100.00
59650;BME280;46162;57.568;25.814;2023-03-21T02:07:29;99981.00;;;3.32;100.00
59650;BME280;46162;57.568;25.814;2023-03-21T02:10:04;99973.97;;;3.31;100.00
59650;BME280;46162;57.568;25.814;2023-03-21T02:12:34;99982.81;;;3.31;100.00
59650;BME280;46162;57.568;25.814;2023-03-21T02:15:08;99981.13;;;3.30;100.00
59650;BME280;46162;57.568;25.814;2023-03-21T02:18:07;99974.22;;;3.28;100.00
59650;BME280;46162;57.568;25.814;2023-03-21T02:27:08;99984.50;;;3.21;100.00
59650;BME280;46162;57.568;25.814;2023-03-21T02:30:13;99977.38;;;3.21;100.00
59650;BME280;46162;57.568;25.814;2023-03-21T02:36:17;99980.53;;;3.15;100.00
59650;BME280;46162;57.568;25.814;2023-03-21T02:39:00;99979.69;;;3.15;100.00
59650;BME280;46162;57.568;25.814;2023-03-21T02:41:40;99980.88;;;3.11;100.00
59650;BME280;46162;57.568;25.814;2023-03-21T02:44:18;99975.44;;;3.12;100.00
59650;BME280;46162;57.568;25.814;2023-03-21T02:46:53;99989.72;;;3.11;100.00
59650;BME280;46162;57.568;25.814;2023-03-21T02:49:36;99974.72;;;3.10;100.00
59650;BME280;46162;57.568;25.814;2023-03-21T02:52:14;99988.28;;;3.07;100.00
59650;BME280;46162;57.568;25.814;2023-03-21T02:55:05;99984.88;;;3.05;100.00
59650;BME280;46162;57.568;25.814;2023-03-21T02:57:54;99989.50;;;3.03;100.00
59650;BME280;46162;57.568;25.814;2023-03-21T03:00:33;99990.47;;;3.02;100.00
59650;BME280;46162;57.568;25.814;2023-03-21T03:03:04;99992.25;;;3.01;100.00
59650;BME280;46162;57.568;25.814;2023-03-21T03:05:42;99985.13;;;3.02;100.00
59650;BME280;46162;57.568;25.814;2023-03-21T03:08:19;99986.72;;;3.05;100.00
59650;BME280;46162;57.568;25.814;2023-03-21T03:11:17;99989.25;;;3.06;100.00
59650;BME280;46162;57.568;25.814;2023-03-21T03:17:16;99982.47;;;3.02;100.00
59650;BME280;46162;57.568;25.814;2023-03-21T03:19:57;99982.47;;;3.02;100.00
59650;BME280;46162;57.568;25.814;2023-03-21T03:22:49;99990.47;;;3.02;100.00
59650;BME280;46162;57.568;25.814;2023-03-21T03:25:25;99994.94;;;3.01;100.00
59650;BME280;46162;57.568;25.814;2023-03-21T03:28:14;99989.75;;;3.00;100.00
59650;BME280;46162;57.568;25.814;2023-03-21T03:30:46;99992.16;;;3.03;100.00
59650;BME280;46162;57.568;25.814;2023-03-21T03:33:43;99992.41;;;3.00;100.00
59650;BME280;46162;57.568;25.814;2023-03-21T03:36:15;100003.31;;;2.97;100.00
59650;BME280;46162;57.568;25.814;2023-03-21T03:39:05;99999.56;;;2.99;100.00
59650;BME280;46162;57.568;25.814;2023-03-21T03:41:42;99999.56;;;2.99;100.00
59650;BME280;46162;57.568;25.814;2023-03-21T03:44:38;100008.50;;;2.98;100.00
59650;BME280;46162;57.568;25.814;2023-03-21T03:47:09;100000.50;;;2.98;100.00
59650;BME280;46162;57.568;25.814;2023-03-21T03:50:01;100004.03;;;2.99;100.00
59650;BME280;46162;57.568;25.814;2023-03-21T03:52:37;100004.03;;;2.99;100.00
59650;BME280;46162;57.568;25.814;2023-03-21T03:55:25;100002.44;;;2.96;100.00
59650;BME280;46162;57.568;25.814;2023-03-21T03:58:11;100012.03;;;2.99;100.00
59650;BME280;46162;57.568;25.814;2023-03-21T04:00:53;100015.66;;;2.98;100.00
59650;BME280;46162;57.568;25.814;2023-03-21T04:03:26;100004.41;;;2.94;100.00
59650;BME280;46162;57.568;25.814;2023-03-21T04:06:07;100009.13;;;2.91;100.00
59650;BME280;46162;57.568;25.814;2023-03-21T04:08:39;100017.97;;;2.91;100.00
59650;BME280;46162;57.568;25.814;2023-03-21T04:11:12;100015.63;;;2.87;100.00
59650;BME280;46162;57.568;25.814;2023-03-21T04:13:50;100021.13;;;2.85;100.00
59650;BME280;46162;57.568;25.814;2023-03-21T04:16:22;100018.94;;;2.90;100.00
59650;BME280;46162;57.568;25.814;2023-03-21T04:18:52;100024.38;;;2.89;100.00
59650;BME280;46162;57.568;25.814;2023-03-21T04:21:25;100016.72;;;2.84;100.00
59650;BME280;46162;57.568;25.814;2023-03-21T04:23:56;100022.19;;;2.83;100.00
59650;BME280;46162;57.568;25.814;2023-03-21T04:26:27;100018.44;;;2.85;100.00
59650;BME280;46162;57.568;25.814;2023-03-21T04:29:22;100012.47;;;2.82;100.00
59650;BME280;46162;57.568;25.814;2023-03-21T04:32:13;100012.38;;;2.83;100.00
59650;BME280;46162;57.568;25.814;2023-03-21T04:34:57;100009.81;;;2.82;100.00
59650;BME280;46162;57.568;25.814;2023-03-21T04:37:26;100016.13;;;2.80;100.00
59650;BME280;46162;57.568;25.814;2023-03-21T04:39:55;100008.03;;;2.82;100.00
59650;BME280;46162;57.568;25.814;2023-03-21T04:42:24;100011.78;;;2.79;100.00
59650;BME280;46162;57.568;25.814;2023-03-21T04:44:54;100005.38;;;2.82;100.00
59650;BME280;46162;57.568;25.814;2023-03-21T04:47:24;100013.47;;;2.80;100.00
59650;BME280;46162;57.568;25.814;2023-03-21T04:49:54;100011.53;;;2.83;100.00
59650;BME280;46162;57.568;25.814;2023-03-21T04:52:24;100012.47;;;2.82;100.00
59650;BME280;46162;57.568;25.814;2023-03-21T04:54:53;100024.88;;;2.83;100.00
59650;BME280;46162;57.568;25.814;2023-03-21T04:57:22;100017.97;;;2.80;100.00
59650;BME280;46162;57.568;25.814;2023-03-21T04:59:51;100016.03;;;2.82;100.00
59650;BME280;46162;57.568;25.814;2023-03-21T05:02:21;100020.72;;;2.78;100.00
59650;BME280;46162;57.568;25.814;2023-03-21T05:04:57;100024.25;;;2.79;100.00
59650;BME280;46162;57.568;25.814;2023-03-21T05:07:26;100024.38;;;2.77;100.00
59650;BME280;46162;57.568;25.814;2023-03-21T05:10:01;100029.72;;;2.77;100.00
59650;BME280;46162;57.568;25.814;2023-03-21T05:12:33;100026.31;;;2.75;100.00
59650;BME280;46162;57.568;25.814;2023-03-21T05:15:02;100039.38;;;2.78;100.00
59650;BME280;46162;57.568;25.814;2023-03-21T05:17:31;100043.88;;;2.78;100.00
59650;BME280;46162;57.568;25.814;2023-03-21T05:20:02;100043.03;;;2.77;100.00
59650;BME280;46162;57.568;25.814;2023-03-21T05:22:32;100037.91;;;2.74;100.00
59650;BME280;46162;57.568;25.814;2023-03-21T05:25:11;100041.47;;;2.75;100.00
59650;BME280;46162;57.568;25.814;2023-03-21T05:28:06;100046.78;;;2.75;100.00
59650;BME280;46162;57.568;25.814;2023-03-21T05:30:35;100043.25;;;2.74;100.00
59650;BME280;46162;57.568;25.814;2023-03-21T05:33:05;100046.53;;;2.78;100.00
59650;BME280;46162;57.568;25.814;2023-03-21T05:35:36;100046.44;;;2.79;100.00
59650;BME280;46162;57.568;25.814;2023-03-21T05:38:08;100053.47;;;2.80;100.00
59650;BME280;46162;57.568;25.814;2023-03-21T05:40:48;100057.09;;;2.79;100.00
59650;BME280;46162;57.568;25.814;2023-03-21T05:43:17;100052.84;;;2.77;100.00
59650;BME280;46162;57.568;25.814;2023-03-21T05:45:46;100060.72;;;2.78;100.00
59650;BME280;46162;57.568;25.814;2023-03-21T05:48:17;100058.28;;;2.75;100.00
59650;BME280;46162;57.568;25.814;2023-03-21T05:51:20;100076.22;;;2.73;100.00
59650;BME280;46162;57.568;25.814;2023-03-21T05:53:49;100068.31;;;2.72;100.00
59650;BME280;46162;57.568;25.814;2023-03-21T05:56:20;100076.69;;;2.67;100.00
59650;BME280;46162;57.568;25.814;2023-03-21T05:58:53;100072.66;;;2.62;100.00
59650;BME280;46162;57.568;25.814;2023-03-21T06:01:23;100079.19;;;2.57;100.00
59650;BME280;46162;57.568;25.814;2023-03-21T06:04:15;100079.16;;;2.46;100.00
59650;BME280;46162;57.568;25.814;2023-03-21T06:06:45;100081.78;;;2.35;100.00
59650;BME280;46162;57.568;25.814;2023-03-21T06:09:14;100086.13;;;2.36;100.00
59650;BME280;46162;57.568;25.814;2023-03-21T06:11:53;100083.69;;;2.33;100.00
59650;BME280;46162;57.568;25.814;2023-03-21T06:14:26;100099.19;;;2.28;100.00
59650;BME280;46162;57.568;25.814;2023-03-21T06:17:18;100107.50;;;2.23;100.00
59650;BME280;46162;57.568;25.814;2023-03-21T06:19:52;100104.31;;;2.18;100.00
59650;BME280;46162;57.568;25.814;2023-03-21T06:22:33;100111.91;;;2.11;100.00
59650;BME280;46162;57.568;25.814;2023-03-21T06:25:02;100114.66;;;2.10;100.00
59650;BME280;46162;57.568;25.814;2023-03-21T06:27:32;100125.44;;;2.08;100.00
59650;BME280;46162;57.568;25.814;2023-03-21T06:30:03;100123.03;;;2.05;100.00
59650;BME280;46162;57.568;25.814;2023-03-21T06:32:38;100126.72;;;2.03;100.00
59650;BME280;46162;57.568;25.814;2023-03-21T06:35:11;100131.34;;;2.01;100.00
59650;BME280;46162;57.568;25.814;2023-03-21T06:37:41;100131.53;;;1.98;100.00
59650;BME280;46162;57.568;25.814;2023-03-21T06:40:15;100131.75;;;1.94;100.00
59650;BME280;46162;57.568;25.814;2023-03-21T06:42:44;100141.09;;;2.00;100.00
59650;BME280;46162;57.568;25.814;2023-03-21T06:45:14;100133.69;;;1.92;100.00
59650;BME280;46162;57.568;25.814;2023-03-21T06:47:42;100147.41;;;1.99;100.00
59650;BME280;46162;57.568;25.814;2023-03-21T06:50:23;100145.81;;;1.97;100.00
59650;BME280;46162;57.568;25.814;2023-03-21T06:52:53;100143.06;;;1.98;100.00
59650;BME280;46162;57.568;25.814;2023-03-21T06:55:23;100143.06;;;1.98;100.00
59650;BME280;46162;57.568;25.814;2023-03-21T06:57:55;100149.22;;;1.99;100.00
59650;BME280;46162;57.568;25.814;2023-03-21T07:00:26;100149.97;;;2.01;100.00
59650;BME280;46162;57.568;25.814;2023-03-21T07:02:56;100151.03;;;1.98;100.00
59650;BME280;46162;57.568;25.814;2023-03-21T07:05:26;100150.06;;;1.99;100.00
59650;BME280;46162;57.568;25.814;2023-03-21T07:07:56;100154.56;;;1.99;100.00
59650;BME280;46162;57.568;25.814;2023-03-21T07:10:29;100150.16;;;1.98;100.00
59650;BME280;46162;57.568;25.814;2023-03-21T07:13:04;100154.31;;;2.02;100.00
59650;BME280;46162;57.568;25.814;2023-03-21T07:15:41;100155.81;;;2.06;100.00
59650;BME280;46162;57.568;25.814;2023-03-21T07:18:11;100162.00;;;2.06;100.00
59650;BME280;46162;57.568;25.814;2023-03-21T07:20:46;100161.13;;;2.06;100.00
59650;BME280;46162;57.568;25.814;2023-03-21T07:23:21;100162.72;;;2.08;100.00
59650;BME280;46162;57.568;25.814;2023-03-21T07:25:53;100166.56;;;2.04;100.00
59650;BME280;46162;57.568;25.814;2023-03-21T07:28:24;100172.00;;;2.03;100.00
59650;BME280;46162;57.568;25.814;2023-03-21T07:30:55;100180.94;;;2.02;100.00
59650;BME280;46162;57.568;25.814;2023-03-21T07:33:25;100180.84;;;2.03;100.00
59650;BME280;46162;57.568;25.814;2023-03-21T07:35:58;100179.25;;;2.01;100.00
59650;BME280;46162;57.568;25.814;2023-03-21T07:38:30;100167.88;;;1.99;100.00
59650;BME280;46162;57.568;25.814;2023-03-21T07:41:00;100183.84;;;1.99;100.00
59650;BME280;46162;57.568;25.814;2023-03-21T07:43:33;100181.19;;;1.99;100.00
59650;BME280;46162;57.568;25.814;2023-03-21T07:46:08;100183.09;;;1.97;100.00
59650;BME280;46162;57.568;25.814;2023-03-21T07:48:37;100188.41;;;1.97;100.00
59650;BME280;46162;57.568;25.814;2023-03-21T07:51:06;100189.16;;;1.99;100.00
59650;BME280;46162;57.568;25.814;2023-03-21T07:53:37;100193.50;;;2.00;100.00
59650;BME280;46162;57.568;25.814;2023-03-21T07:56:08;100199.69;;;2.00;100.00
59650;BME280;46162;57.568;25.814;2023-03-21T07:58:39;100198.84;;;2.00;100.00
59650;BME280;46162;57.568;25.814;2023-03-21T08:01:08;100205.97;;;1.99;100.00
59650;BME280;46162;57.568;25.814;2023-03-21T08:03:39;100205.22;;;1.97;100.00
59650;BME280;46162;57.568;25.814;2023-03-21T08:06:10;100208.03;;;1.96;100.00
59650;BME280;46162;57.568;25.814;2023-03-21T08:08:40;100212.06;;;1.88;100.00
59650;BME280;46162;57.568;25.814;2023-03-21T08:11:09;100210.16;;;1.90;100.00
59650;BME280;46162;57.568;25.814;2023-03-21T08:13:38;100221.84;;;1.88;100.00
59650;BME280;46162;57.568;25.814;2023-03-21T08:16:08;100220.81;;;1.90;100.00
59650;BME280;46162;57.568;25.814;2023-03-21T08:18:37;100227.81;;;1.91;100.00
59650;BME280;46162;57.568;25.814;2023-03-21T08:21:06;100224.84;;;1.96;100.00
59650;BME280;46162;57.568;25.814;2023-03-21T08:23:35;100225.91;;;1.93;100.00
59650;BME280;46162;57.568;25.814;2023-03-21T08:26:06;100234.22;;;1.89;100.00
59650;BME280;46162;57.568;25.814;2023-03-21T08:28:41;100242.81;;;1.92;100.00
59650;BME280;46162;57.568;25.814;2023-03-21T08:31:11;100244.31;;;1.97;100.00
59650;BME280;46162;57.568;25.814;2023-03-21T08:33:40;100237.19;;;1.97;100.00
59650;BME280;46162;57.568;25.814;2023-03-21T08:36:10;100247.97;;;1.96;100.00
59650;BME280;46162;57.568;25.814;2023-03-21T08:38:39;100244.31;;;1.97;100.00
59650;BME280;46162;57.568;25.814;2023-03-21T08:41:09;100250.50;;;1.97;100.00
59650;BME280;46162;57.568;25.814;2023-03-21T08:43:38;100246.53;;;2.03;100.00
59650;BME280;46162;57.568;25.814;2023-03-21T08:46:07;100249.34;;;2.01;100.00
59650;BME280;46162;57.568;25.814;2023-03-21T08:48:35;100253.69;;;2.02;100.00
59650;BME280;46162;57.568;25.814;2023-03-21T08:51:05;100251.88;;;2.03;100.00
59650;BME280;46162;57.568;25.814;2023-03-21T08:53:34;100260.41;;;2.08;100.00
59650;BME280;46162;57.568;25.814;2023-03-21T08:56:03;100272.84;;;2.07;100.00
59650;BME280;46162;57.568;25.814;2023-03-21T08:58:34;100266.91;;;2.04;100.00
59650;BME280;46162;57.568;25.814;2023-03-21T09:01:04;100273.50;;;2.11;100.00
59650;BME280;46162;57.568;25.814;2023-03-21T09:03:37;100272.00;;;2.07;100.00
59650;BME280;46162;57.568;25.814;2023-03-21T09:06:07;100283.31;;;2.10;100.00
59650;BME280;46162;57.568;25.814;2023-03-21T09:08:45;100279.06;;;2.08;100.00
59650;BME280;46162;57.568;25.814;2023-03-21T09:11:14;100282.44;;;2.10;100.00
59650;BME280;46162;57.568;25.814;2023-03-21T09:13:45;100285.84;;;2.12;100.00
59650;BME280;46162;57.568;25.814;2023-03-21T09:16:14;100293.00;;;2.11;100.00
59650;BME280;46162;57.568;25.814;2023-03-21T09:18:43;100296.72;;;2.09;100.00
59650;BME280;46162;57.568;25.814;2023-03-21T09:21:17;100308.88;;;2.13;100.00
59650;BME280;46162;57.568;25.814;2023-03-21T09:23:46;100307.16;;;2.12;100.00
59650;BME280;46162;57.568;25.814;2023-03-21T09:26:19;100306.75;;;2.18;100.00
59650;BME280;46162;57.568;25.814;2023-03-21T09:28:49;100305.78;;;2.19;100.00
59650;BME280;46162;57.568;25.814;2023-03-21T09:31:19;100321.75;;;2.19;100.00
59650;BME280;46162;57.568;25.814;2023-03-21T09:33:50;100315.03;;;2.26;100.00
59650;BME280;46162;57.568;25.814;2023-03-21T09:36:19;100312.38;;;2.26;100.00
59650;BME280;46162;57.568;25.814;2023-03-21T09:38:51;100317.47;;;2.29;100.00
59650;BME280;46162;57.568;25.814;2023-03-21T09:41:34;100325.47;;;2.29;100.00
59650;BME280;46162;57.568;25.814;2023-03-21T09:44:20;100324.53;;;2.30;100.00
59650;BME280;46162;57.568;25.814;2023-03-21T09:46:59;100331.22;;;2.36;100.00
59650;BME280;46162;57.568;25.814;2023-03-21T09:49:32;100333.03;;;2.35;100.00
59650;BME280;46162;57.568;25.814;2023-03-21T09:52:09;100343.69;;;2.35;100.00
59650;BME280;46162;57.568;25.814;2023-03-21T09:54:41;100339.44;;;2.33;100.00
59650;BME280;46162;57.568;25.814;2023-03-21T09:57:17;100339.63;;;2.30;100.00
59650;BME280;46162;57.568;25.814;2023-03-21T09:59:53;100346.25;;;2.37;100.00
59650;BME280;46162;57.568;25.814;2023-03-21T10:02:38;100345.84;;;2.30;100.00
59650;BME280;46162;57.568;25.814;2023-03-21T10:05:19;100348.28;;;2.33;100.00
59650;BME280;46162;57.568;25.814;2023-03-21T10:07:50;100351.88;;;2.32;100.00
59650;BME280;46162;57.568;25.814;2023-03-21T10:10:23;100355.44;;;2.33;100.00
59650;BME280;46162;57.568;25.814;2023-03-21T10:12:54;100355.19;;;2.36;100.00
59650;BME280;46162;57.568;25.814;2023-03-21T10:15:26;100360.63;;;2.34;100.00
59650;BME280;46162;57.568;25.814;2023-03-21T10:18:01;100359.69;;;2.35;100.00
59650;BME280;46162;57.568;25.814;2023-03-21T10:20:35;100369.16;;;2.40;100.00
59650;BME280;46162;57.568;25.814;2023-03-21T10:23:09;100372.47;;;2.43;100.00
59650;BME280;46162;57.568;25.814;2023-03-21T10:25:43;100373.53;;;2.41;100.00
59650;BME280;46162;57.568;25.814;2023-03-21T10:28:15;100370.66;;;2.44;100.00
59650;BME280;46162;57.568;25.814;2023-03-21T10:30:48;100377.25;;;2.51;100.00
59650;BME280;46162;57.568;25.814;2023-03-21T10:33:20;100383.44;;;2.51;100.00
59650;BME280;46162;57.568;25.814;2023-03-21T10:35:53;100386.22;;;2.50;100.00
59650;BME280;46162;57.568;25.814;2023-03-21T10:38:24;100388.47;;;2.43;100.00
59650;BME280;46162;57.568;25.814;2023-03-21T10:40:54;100391.44;;;2.39;100.00
59650;BME280;46162;57.568;25.814;2023-03-21T10:43:35;100398.44;;;2.40;100.00
59650;BME280;46162;57.568;25.814;2023-03-21T10:46:11;100402.94;;;2.39;100.00
59650;BME280;46162;57.568;25.814;2023-03-21T10:48:41;100399.44;;;2.39;100.00
59650;BME280;46162;57.568;25.814;2023-03-21T10:51:16;100395.06;;;2.38;100.00
59650;BME280;46162;57.568;25.814;2023-03-21T10:53:51;100403.91;;;2.38;100.00
59650;BME280;46162;57.568;25.814;2023-03-21T10:56:24;100396.97;;;2.35;100.00
59650;BME280;46162;57.568;25.814;2023-03-21T10:58:55;100401.47;;;2.35;100.00
59650;BME280;46162;57.568;25.814;2023-03-21T11:01:29;100408.25;;;2.26;100.00
59650;BME280;46162;57.568;25.814;2023-03-21T11:04:07;100414.66;;;2.24;100.00
59650;BME280;46162;57.568;25.814;2023-03-21T11:06:38;100415.28;;;2.27;100.00
59650;BME280;46162;57.568;25.814;2023-03-21T11:09:15;100423.81;;;2.32;100.00
59650;BME280;46162;57.568;25.814;2023-03-21T11:11:50;100417.75;;;2.30;100.00
59650;BME280;46162;57.568;25.814;2023-03-21T11:14:31;100419.78;;;2.40;100.00
59650;BME280;46162;57.568;25.814;2023-03-21T11:17:18;100415.63;;;2.35;100.00
59650;BME280;46162;57.568;25.814;2023-03-21T11:19:49;100419.78;;;2.40;100.00
59650;BME280;46162;57.568;25.814;2023-03-21T11:22:20;100423.72;;;2.34;100.00
59650;BME280;46162;57.568;25.814;2023-03-21T11:24:51;100431.63;;;2.35;100.00
59650;BME280;46162;57.568;25.814;2023-03-21T11:27:20;100421.72;;;2.38;100.00
59650;BME280;46162;57.568;25.814;2023-03-21T11:29:51;100431.94;;;2.44;100.00
59650;BME280;46162;57.568;25.814;2023-03-21T11:32:23;100425.75;;;2.43;100.00
59650;BME280;46162;57.568;25.814;2023-03-21T11:34:56;100424.03;;;2.42;100.00
59650;BME280;46162;57.568;25.814;2023-03-21T11:37:30;100426.81;;;2.41;100.00
59650;BME280;46162;57.568;25.814;2023-03-21T11:40:07;100428.72;;;2.39;100.00
59650;BME280;46162;57.568;25.814;2023-03-21T11:42:42;100428.50;;;2.42;100.00
59650;BME280;46162;57.568;25.814;2023-03-21T11:45:14;100426.59;;;2.44;100.00
59650;BME280;46162;57.568;25.814;2023-03-21T11:47:45;100430.44;;;2.40;100.00
59650;BME280;46162;57.568;25.814;2023-03-21T11:50:18;100424.56;;;2.47;100.00
59650;BME280;46162;57.568;25.814;2023-03-21T11:52:57;100432.78;;;2.31;100.00
59650;BME280;46162;57.568;25.814;2023-03-21T11:55:35;100438.00;;;2.20;100.00
59650;BME280;46162;57.568;25.814;2023-03-21T11:58:19;100439.22;;;2.02;100.00
59650;BME280;46162;57.568;25.814;2023-03-21T12:00:57;100443.13;;;1.83;100.00
59650;BME280;46162;57.568;25.814;2023-03-21T12:03:56;100445.25;;;1.78;100.00
59650;BME280;46162;57.568;25.814;2023-03-21T12:06:34;100436.50;;;1.76;100.00
59650;BME280;46162;57.568;25.814;2023-03-21T12:09:18;100439.94;;;1.78;100.00
59650;BME280;46162;57.568;25.814;2023-03-21T12:12:02;100445.47;;;1.88;100.00
59650;BME280;46162;57.568;25.814;2023-03-21T12:14:41;100442.72;;;1.89;100.00
59650;BME280;46162;57.568;25.814;2023-03-21T12:17:23;100441.88;;;1.89;100.00
59650;BME280;46162;57.568;25.814;2023-03-21T12:20:20;100453.16;;;1.92;100.00
59650;BME280;46162;57.568;25.814;2023-03-21T12:22:58;100440.50;;;1.96;100.00
59650;BME280;46162;57.568;25.814;2023-03-21T12:25:35;100446.47;;;2.00;100.00
59650;BME280;46162;57.568;25.814;2023-03-21T12:28:15;100451.56;;;2.03;100.00
59650;BME280;46162;57.568;25.814;2023-03-21T12:31:06;100459.34;;;1.93;100.00
59650;BME280;46162;57.568;25.814;2023-03-21T12:33:54;100460.00;;;1.97;100.00
59650;BME280;46162;57.568;25.814;2023-03-21T12:36:36;100465.72;;;1.90;100.00
59650;BME280;46162;57.568;25.814;2023-03-21T12:39:18;100469.34;;;1.89;100.00
59650;BME280;46162;57.568;25.814;2023-03-21T12:42:02;100471.09;;;2.03;100.00
59650;BME280;46162;57.568;25.814;2023-03-21T12:44:38;100474.53;;;2.18;100.00
59650;BME280;46162;57.568;25.814;2023-03-21T12:47:12;100482.81;;;2.01;100.00
59650;BME280;46162;57.568;25.814;2023-03-21T12:49:47;100480.25;;;2.12;100.00
59650;BME280;46162;57.568;25.814;2023-03-21T12:52:24;100474.28;;;1.96;100.00
59650;BME280;46162;57.568;25.814;2023-03-21T12:54:57;100477.88;;;1.94;100.00
59650;BME280;46162;57.568;25.814;2023-03-21T12:57:31;100479.16;;;2.02;100.00
59650;BME280;46162;57.568;25.814;2023-03-21T13:00:08;100479.16;;;2.02;100.00
59650;BME280;46162;57.568;25.814;2023-03-21T13:02:42;100482.69;;;2.02;100.00
59650;BME280;46162;57.568;25.814;2023-03-21T13:05:17;100484.19;;;2.06;100.00
59650;BME280;46162;57.568;25.814;2023-03-21T13:07:53;100484.91;;;1.96;100.00
59650;BME280;46162;57.568;25.814;2023-03-21T13:10:24;100479.16;;;2.02;100.00
59650;BME280;46162;57.568;25.814;2023-03-21T13:13:00;100479.72;;;2.07;100.00
59650;BME280;46162;57.568;25.814;2023-03-21T13:15:56;100483.19;;;1.94;100.00
59650;BME280;46162;57.568;25.814;2023-03-21T13:18:33;100487.88;;;1.91;100.00
59650;BME280;46162;57.568;25.814;2023-03-21T13:21:10;100484.25;;;1.92;100.00
59650;BME280;46162;57.568;25.814;2023-03-21T13:23:54;100491.44;;;2.04;100.00
59650;BME280;46162;57.568;25.814;2023-03-21T13:26:35;100492.09;;;2.08;100.00
59650;BME280;46162;57.568;25.814;2023-03-21T13:29:22;100491.88;;;2.11;100.00
59650;BME280;46162;57.568;25.814;2023-03-21T13:31:53;100494.97;;;2.18;100.00
59650;BME280;46162;57.568;25.814;2023-03-21T13:34:24;100499.25;;;2.20;100.00
59650;BME280;46162;57.568;25.814;2023-03-21T13:36:55;100488.50;;;2.34;100.00
59650;BME280;46162;57.568;25.814;2023-03-21T13:39:27;100496.50;;;2.34;100.00